Time;durP1;ratioP1;P1;durP2;ratioP2;P2;SDS_P1;SDS_P2;PMS_P1;PMS_P2;Temp;Humidity;BMP_temperature;BMP_pressure;BME280_temperature;BME280_humidity;BME280_pressure;Samples;Min_cycle;Max_cycle;Signal;HPM_P1;HPM_P2
2023/12/12 00:01:56;;;;;;;;;;;;;;;;;;5106903;28;19932;-53
2023/12/12 00:04:23;;;;;;;;;;;;;;;;;;5106874;28;19935;-53
2023/12/12 00:06:49;;;;;;;;;;;;;;;;;;5107276;28;19924;-52
2023/12/12 00:09:15;;;;;;;;;;;;;;;;;;5106630;28;19927;-52
2023/12/12 00:11:41;;;;;;;;;;;;;;;;;;5107110;28;19928;-53
2023/12/12 00:14:07;;;;;;;;;;;;;;;;;;5106828;28;19962;-52
2023/12/12 00:16:33;;;;;;;;;;;;;;;;;;5107597;28;19928;-52
2023/12/12 00:19:00;;;;;;;;;;;;;;;;;;5106415;28;20387;-52
2023/12/12 00:21:26;;;;;;;;;;;;;;;;;;5106792;28;19938;-53
2023/12/12 00:23:52;;;;;;;;;;;;;;;;;;5107183;28;19928;-53
2023/12/12 00:26:18;;;;;;;;;;;;;;;;;;5106188;28;19928;-53
2023/12/12 00:28:44;;;;;;;;;;;;;;;;;;5105436;28;20296;-52
2023/12/12 00:31:11;;;;;;;;;;;;;;;;;;5106241;28;20364;-52
2023/12/12 00:33:37;;;;;;;;;;;;;;;;;;5106893;28;19939;-53
2023/12/12 00:36:03;;;;;;;;;;;;;;;;;;5106917;28;20167;-53
2023/12/12 00:38:29;;;;;;;;;;;;;;;;;;5106372;28;19984;-52
2023/12/12 00:40:55;;;;;;;;;;;;;;;;;;5106513;28;20286;-53
2023/12/12 00:43:21;;;;;;;;;;;;;;;;;;5106733;28;19996;-52
2023/12/12 00:45:48;;;;;;;;;;;;;;;;;;5106297;28;19928;-52
2023/12/12 00:48:14;;;;;;;;;;;;;;;;;;5106537;28;19924;-53
2023/12/12 00:50:40;;;;;;;;;;;;;;;;;;5106055;28;19928;-53
2023/12/12 00:53:06;;;;;;;;;;;;;;;;;;5106125;28;19963;-53
2023/12/12 00:55:32;;;;;;;;;;;;;;;;;;5105685;28;19939;-53
2023/12/12 00:57:58;;;;;;;;;;;;;;;;;;5105642;28;19924;-53
2023/12/12 01:00:25;;;;;;;;;;;;;;;;;;5105566;28;19924;-53
2023/12/12 01:02:51;;;;;;;;;;;;;;;;;;5106210;28;19985;-53
2023/12/12 01:05:17;;;;;;;;;;;;;;;;;;5106368;28;19963;-52
2023/12/12 01:07:43;;;;;;;;;;;;;;;;;;5108387;28;19932;-53
2023/12/12 01:10:09;;;;;;;;;;;;;;;;;;5110102;28;20407;-52
2023/12/12 01:12:35;;;;;;;;;;;;;;;;;;5110296;28;20012;-52
2023/12/12 01:15:02;;;;;;;;;;;;;;;;;;5110528;28;19938;-53
2023/12/12 01:17:28;;;;;;;;;;;;;;;;;;5110413;28;19923;-52
2023/12/12 01:19:54;;;;;;;;;;;;;;;;;;5110039;27;19932;-53
2023/12/12 01:22:20;;;;;;;;;;;;;;;;;;5109909;27;20363;-52
2023/12/12 01:24:47;;;;;;;;;;;;;;;;;;5109543;28;19930;-53
2023/12/12 01:27:13;;;;;;;;;;;;;;;;;;5109663;28;20364;-53
2023/12/12 01:29:39;;;;;;;;;;;;;;;;;;5109369;28;19973;-52
2023/12/12 01:32:05;;;;;;;;;;;;;;;;;;5110714;28;19935;-53
2023/12/12 01:34:31;;;;;;;;;;;;;;;;;;5110623;28;19959;-52
2023/12/12 01:36:57;;;;;;;;;;;;;;;;;;5110189;28;20204;-53
2023/12/12 01:39:24;;;;;;;;;;;;;;;;;;5109774;28;20231;-53
2023/12/12 01:41:50;;;;;;;;;;;;;;;;;;5110331;28;19923;-53
2023/12/12 01:44:16;;;;;;;;;;;;;;;;;;5109871;27;19924;-53
2023/12/12 01:46:42;;;;;;;;;;;;;;;;;;5110482;28;19938;-53
2023/12/12 01:49:08;;;;;;;;;;;;;;;;;;5109447;28;19984;-53
2023/12/12 01:51:34;;;;;;;;;;;;;;;;;;5109340;28;20371;-53
2023/12/12 01:54:01;;;;;;;;;;;;;;;;;;5110042;27;21311;-52
2023/12/12 01:56:28;;;;;;;;;;;;;;;;;;5109006;28;19981;-53
2023/12/12 01:58:54;;;;;;;;;;;;;;;;;;5109683;28;20447;-53
2023/12/12 02:01:20;;;;;;;;;;;;;;;;;;5109419;28;20379;-53
2023/12/12 02:03:46;;;;;;;;;;;;;;;;;;5110050;28;19924;-54
2023/12/12 02:06:14;;;;;;;;;;;;;;;;;;5109692;28;19928;-53
2023/12/12 02:08:40;;;;;;;;;;;;;;;;;;5109453;28;19924;-53
2023/12/12 02:11:07;;;;;;;;;;;;;;;;;;5109352;28;19974;-53
2023/12/12 02:13:33;;;;;;;;;;;;;;;;;;5109271;28;20005;-53
2023/12/12 02:15:59;;;;;;;;;;;;;;;;;;5108160;28;19930;-51
2023/12/12 02:18:25;;;;;;;;;;;;;;;;;;5107925;28;19924;-52
2023/12/12 02:20:51;;;;;;;;;;;;;;;;;;5108231;28;20394;-53
2023/12/12 02:23:18;;;;;;;;;;;;;;;;;;5108614;28;20367;-53
2023/12/12 02:25:44;;;;;;;;;;;;;;;;;;5108641;28;19924;-52
2023/12/12 02:28:10;;;;;;;;;;;;;;;;;;5109084;28;19937;-53
2023/12/12 02:30:36;;;;;;;;;;;;;;;;;;5108895;28;19984;-52
2023/12/12 02:33:02;;;;;;;;;;;;;;;;;;5109704;27;19924;-53
2023/12/12 02:35:29;;;;;;;;;;;;;;;;;;5108935;28;20339;-53
2023/12/12 02:37:55;;;;;;;;;;;;;;;;;;5109184;28;19924;-53
2023/12/12 02:40:21;;;;;;;;;;;;;;;;;;5108839;28;19953;-52
2023/12/12 02:42:50;;;;;;;;;;;;;;;;;;5108743;28;19927;-52
2023/12/12 02:45:16;;;;;;;;;;;;;;;;;;5108557;28;19924;-53
2023/12/12 02:47:43;;;;;;;;;;;;;;;;;;5108172;28;19928;-53
2023/12/12 02:50:09;;;;;;;;;;;;;;;;;;5107964;28;19927;-52
2023/12/12 02:52:35;;;;;;;;;;;;;;;;;;5108335;27;19924;-53
2023/12/12 02:55:01;;;;;;;;;;;;;;;;;;5108473;28;19930;-53
2023/12/12 02:57:27;;;;;;;;;;;;;;;;;;5108717;28;19924;-52
2023/12/12 02:59:54;;;;;;;;;;;;;;;;;;5107973;28;19944;-52
2023/12/12 03:02:20;;;;;;;;;;;;;;;;;;5108432;28;19975;-53
2023/12/12 03:04:46;;;;;;;;;;;;;;;;;;5108899;28;19955;-53
2023/12/12 03:07:12;;;;;;;;;;;;;;;;;;5108559;28;19963;-53
2023/12/12 03:09:38;;;;;;;;;;;;;;;;;;5108145;28;19923;-52
2023/12/12 03:12:05;;;;;;;;;;;;;;;;;;5108180;28;19988;-53
2023/12/12 03:14:31;;;;;;;;;;;;;;;;;;5108059;28;19962;-53
2023/12/12 03:16:57;;;;;;;;;;;;;;;;;;5108204;28;19938;-52
2023/12/12 03:19:23;;;;;;;;;;;;;;;;;;5106917;28;19965;-53
2023/12/12 03:21:49;;;;;;;;;;;;;;;;;;5107325;28;20157;-53
2023/12/12 03:24:16;;;;;;;;;;;;;;;;;;5107543;27;19942;-53
2023/12/12 03:26:42;;;;;;;;;;;;;;;;;;5108024;28;20022;-53
2023/12/12 03:29:08;;;;;;;;;;;;;;;;;;5107864;28;19974;-52
2023/12/12 03:31:34;;;;;;;;;;;;;;;;;;5106854;28;19977;-51
2023/12/12 03:34:00;;;;;;;;;;;;;;;;;;5108317;28;19928;-52
2023/12/12 03:36:27;;;;;;;;;;;;;;;;;;5107938;28;20367;-52
2023/12/12 03:38:53;;;;;;;;;;;;;;;;;;5107637;28;19975;-52
2023/12/12 03:41:19;;;;;;;;;;;;;;;;;;5107907;28;20064;-53
2023/12/12 03:43:45;;;;;;;;;;;;;;;;;;5107736;28;19928;-51
2023/12/12 03:46:12;;;;;;;;;;;;;;;;;;5107071;28;19932;-51
2023/12/12 03:48:38;;;;;;;;;;;;;;;;;;5107020;28;19924;-53
2023/12/12 03:51:04;;;;;;;;;;;;;;;;;;5107107;28;20046;-53
2023/12/12 03:53:30;;;;;;;;;;;;;;;;;;5107166;28;19959;-52
2023/12/12 03:55:57;;;;;;;;;;;;;;;;;;5107942;28;20024;-52
2023/12/12 03:58:24;;;;;;;;;;;;;;;;;;5107215;28;20253;-53
2023/12/12 04:00:50;;;;;;;;;;;;;;;;;;5107425;28;20295;-53
2023/12/12 04:03:16;;;;;;;;;;;;;;;;;;5107020;28;20294;-53
2023/12/12 04:05:42;;;;;;;;;;;;;;;;;;5107535;28;19939;-53
2023/12/12 04:08:08;;;;;;;;;;;;;;;;;;5107583;28;19969;-53
2023/12/12 04:10:34;;;;;;;;;;;;;;;;;;5107016;28;19965;-53
2023/12/12 04:13:01;;;;;;;;;;;;;;;;;;5107441;28;20256;-53
2023/12/12 04:15:27;;;;;;;;;;;;;;;;;;5106752;28;19924;-53
2023/12/12 04:17:53;;;;;;;;;;;;;;;;;;5106197;28;20008;-53
2023/12/12 04:20:19;;;;;;;;;;;;;;;;;;5106178;28;19936;-53
2023/12/12 04:22:45;;;;;;;;;;;;;;;;;;5107261;28;19971;-53
2023/12/12 04:25:12;;;;;;;;;;;;;;;;;;5106888;28;19932;-53
2023/12/12 04:27:38;;;;;;;;;;;;;;;;;;5106956;28;20283;-53
2023/12/12 04:30:04;;;;;;;;;;;;;;;;;;5106638;28;20343;-52
2023/12/12 04:32:30;;;;;;;;;;;;;;;;;;5107350;28;19924;-52
2023/12/12 04:34:57;;;;;;;;;;;;;;;;;;5107110;28;19973;-53
2023/12/12 04:37:23;;;;;;;;;;;;;;;;;;5107070;28;20378;-53
2023/12/12 04:39:49;;;;;;;;;;;;;;;;;;5106716;28;19924;-53
2023/12/12 04:42:16;;;;;;;;;;;;;;;;;;5106337;28;20364;-53
2023/12/12 04:44:42;;;;;;;;;;;;;;;;;;5105996;28;19931;-53
2023/12/12 04:47:08;;;;;;;;;;;;;;;;;;5106363;28;19924;-53
2023/12/12 04:49:34;;;;;;;;;;;;;;;;;;5105098;28;19934;-52
2023/12/12 04:52:01;;;;;;;;;;;;;;;;;;5106913;28;19923;-53
2023/12/12 04:54:28;;;;;;;;;;;;;;;;;;5107359;28;19984;-53
2023/12/12 04:56:54;;;;;;;;;;;;;;;;;;5106828;28;20385;-53
2023/12/12 04:59:20;;;;;;;;;;;;;;;;;;5106380;28;19931;-53
2023/12/12 05:01:46;;;;;;;;;;;;;;;;;;5106449;28;19924;-52
2023/12/12 05:04:12;;;;;;;;;;;;;;;;;;5107001;28;19979;-52
2023/12/12 05:06:38;;;;;;;;;;;;;;;;;;5106929;28;19927;-53
2023/12/12 05:09:04;;;;;;;;;;;;;;;;;;5106477;28;19967;-53
2023/12/12 05:11:31;;;;;;;;;;;;;;;;;;5105705;28;19977;-52
2023/12/12 05:13:57;;;;;;;;;;;;;;;;;;5106519;28;19967;-52
2023/12/12 05:16:23;;;;;;;;;;;;;;;;;;5105533;28;19924;-53
2023/12/12 05:18:56;;;;;;;;;;;;;;;;;;5105366;28;20405;-53
2023/12/12 05:21:23;;;;;;;;;;;;;;;;;;5106355;28;19930;-52
2023/12/12 05:23:49;;;;;;;;;;;;;;;;;;5106928;28;20626;-53
2023/12/12 05:26:15;;;;;;;;;;;;;;;;;;5106235;28;19984;-53
2023/12/12 05:28:41;;;;;;;;;;;;;;;;;;5105971;28;19961;-52
2023/12/12 05:31:08;;;;;;;;;;;;;;;;;;5106621;28;19959;-53
2023/12/12 05:33:34;;;;;;;;;;;;;;;;;;5106624;28;20375;-53
2023/12/12 05:36:00;;;;;;;;;;;;;;;;;;5106561;28;19974;-53
2023/12/12 05:38:26;;;;;;;;;;;;;;;;;;5105917;28;19967;-52
2023/12/12 05:40:52;;;;;;;;;;;;;;;;;;5105969;28;20032;-52
2023/12/12 05:43:20;;;;;;;;;;;;;;;;;;5104920;28;21287;-51
2023/12/12 05:45:47;;;;;;;;;;;;;;;;;;5105516;28;19928;-52
2023/12/12 05:48:13;;;;;;;;;;;;;;;;;;5105946;28;19927;-52
2023/12/12 05:50:40;;;;;;;;;;;;;;;;;;5103019;28;19975;-53
2023/12/12 05:53:12;;;;;;;;;;;;;;;;;;5105008;28;20355;-53
2023/12/12 05:55:38;;;;;;;;;;;;;;;;;;5101858;28;19959;-53
2023/12/12 05:58:04;;;;;;;;;;;;;;;;;;5105121;28;19923;-52
2023/12/12 06:00:30;;;;;;;;;;;;;;;;;;5107453;28;19931;-52
2023/12/12 06:02:57;;;;;;;;;;;;;;;;;;5105701;28;19928;-53
2023/12/12 06:05:24;;;;;;;;;;;;;;;;;;5108111;28;20344;-53
2023/12/12 06:07:50;;;;;;;;;;;;;;;;;;5108240;28;19924;-53
2023/12/12 06:10:18;;;;;;;;;;;;;;;;;;5106770;28;19928;-52
2023/12/12 06:12:45;;;;;;;;;;;;;;;;;;5106868;28;19927;-53
2023/12/12 06:15:11;;;;;;;;;;;;;;;;;;5107034;28;19963;-51
2023/12/12 06:17:38;;;;;;;;;;;;;;;;;;5107281;28;19924;-53
2023/12/12 06:20:04;;;;;;;;;;;;;;;;;;5103302;28;19932;-51
2023/12/12 06:22:31;;;;;;;;;;;;;;;;;;5105451;28;20012;-53
2023/12/12 06:24:57;;;;;;;;;;;;;;;;;;5104862;28;19932;-54
2023/12/12 06:27:23;;;;;;;;;;;;;;;;;;5103521;28;19928;-52
2023/12/12 06:29:50;;;;;;;;;;;;;;;;;;5106159;28;19931;-53
2023/12/12 06:32:16;;;;;;;;;;;;;;;;;;5105883;28;19927;-55
2023/12/12 06:34:43;;;;;;;;;;;;;;;;;;5101977;28;19931;-54
2023/12/12 06:37:10;;;;;;;;;;;;;;;;;;5098078;28;20380;-52
2023/12/12 06:39:36;;;;;;;;;;;;;;;;;;5104827;28;19938;-53
2023/12/12 06:42:02;;;;;;;;;;;;;;;;;;5103867;28;19924;-53
2023/12/12 06:44:29;;;;;;;;;;;;;;;;;;5098602;27;19928;-55
2023/12/12 06:46:55;;;;;;;;;;;;;;;;;;5106026;28;20196;-53
2023/12/12 06:49:21;;;;;;;;;;;;;;;;;;5102757;28;19978;-53
2023/12/12 06:51:47;;;;;;;;;;;;;;;;;;5104159;28;19931;-53
2023/12/12 06:54:13;;;;;;;;;;;;;;;;;;5101874;28;19984;-53
2023/12/12 06:56:40;;;;;;;;;;;;;;;;;;5101905;28;19932;-53
2023/12/12 06:59:06;;;;;;;;;;;;;;;;;;5103282;28;20750;-53
2023/12/12 07:01:32;;;;;;;;;;;;;;;;;;5100250;28;19924;-52
2023/12/12 07:03:58;;;;;;;;;;;;;;;;;;5103160;28;20042;-52
2023/12/12 07:06:25;;;;;;;;;;;;;;;;;;5095420;28;19946;-53
2023/12/12 07:08:52;;;;;;;;;;;;;;;;;;5099947;28;19932;-52
2023/12/12 07:11:18;;;;;;;;;;;;;;;;;;5089091;28;19981;-52
2023/12/12 07:13:44;;;;;;;;;;;;;;;;;;5101680;28;19963;-53
2023/12/12 07:16:10;;;;;;;;;;;;;;;;;;5094330;28;20355;-49
2023/12/12 07:18:37;;;;;;;;;;;;;;;;;;5096636;28;19928;-54
2023/12/12 07:21:03;;;;;;;;;;;;;;;;;;5094985;28;19932;-53
2023/12/12 07:23:29;;;;;;;;;;;;;;;;;;5096287;27;20321;-49
2023/12/12 07:25:56;;;;;;;;;;;;;;;;;;5038583;28;20456;-50
2023/12/12 07:28:23;;;;;;;;;;;;;;;;;;5030463;28;19935;-52
2023/12/12 07:30:49;;;;;;;;;;;;;;;;;;5029602;28;20270;-59
2023/12/12 07:33:15;;;;;;;;;;;;;;;;;;5032165;28;20367;-57
2023/12/12 07:35:41;;;;;;;;;;;;;;;;;;5030664;28;19933;-53
2023/12/12 07:38:08;;;;;;;;;;;;;;;;;;5034209;28;19925;-50
2023/12/12 07:40:34;;;;;;;;;;;;;;;;;;5027556;28;20459;-52
2023/12/12 07:43:00;;;;;;;;;;;;;;;;;;5032162;28;20010;-53
2023/12/12 07:45:26;;;;;;;;;;;;;;;;;;5093192;28;19932;-51
2023/12/12 07:47:52;;;;;;;;;;;;;;;;;;5095209;28;20019;-53
2023/12/12 07:50:19;;;;;;;;;;;;;;;;;;5094718;27;20522;-52
2023/12/12 07:52:47;;;;;;;;;;;;;;;;;;5090038;27;19935;-53
2023/12/12 07:55:13;;;;;;;;;;;;;;;;;;5094971;28;20622;-51
2023/12/12 07:57:39;;;;;;;;;;;;;;;;;;5087998;28;20401;-52
2023/12/12 08:00:06;;;;;;;;;;;;;;;;;;5089188;28;19931;-51
2023/12/12 08:02:32;;;;;;;;;;;;;;;;;;5094918;27;19924;-52
2023/12/12 08:04:58;;;;;;;;;;;;;;;;;;5088978;27;20279;-52
2023/12/12 08:07:24;;;;;;;;;;;;;;;;;;5090257;28;20351;-52
2023/12/12 08:09:51;;;;;;;;;;;;;;;;;;5086477;27;19932;-52
2023/12/12 08:12:17;;;;;;;;;;;;;;;;;;5091015;28;19932;-52
2023/12/12 08:14:43;;;;;;;;;;;;;;;;;;5094436;28;20019;-52
2023/12/12 08:17:11;;;;;;;;;;;;;;;;;;5085184;28;19974;-52
2023/12/12 08:19:38;;;;;;;;;;;;;;;;;;5094140;28;19927;-52
2023/12/12 08:22:04;;;;;;;;;;;;;;;;;;5084477;28;19928;-52
2023/12/12 08:24:30;;;;;;;;;;;;;;;;;;5081574;27;21159;-52
2023/12/12 08:26:56;;;;;;;;;;;;;;;;;;5085673;28;20476;-53
2023/12/12 08:29:22;;;;;;;;;;;;;;;;;;5082802;28;20022;-52
2023/12/12 08:31:49;;;;;;;;;;;;;;;;;;5081035;28;19967;-52
2023/12/12 08:34:15;;;;;;;;;;;;;;;;;;5085081;28;19934;-52
2023/12/12 08:36:41;;;;;;;;;;;;;;;;;;5083654;28;19935;-52
2023/12/12 08:39:07;;;;;;;;;;;;;;;;;;5080926;28;20046;-52
2023/12/12 08:41:33;;;;;;;;;;;;;;;;;;5087645;28;20422;-53
2023/12/12 08:44:00;;;;;;;;;;;;;;;;;;5089143;28;19971;-51
2023/12/12 08:46:27;;;;;;;;;;;;;;;;;;5081941;28;19969;-52
2023/12/12 08:48:54;;;;;;;;;;;;;;;;;;5085102;28;20288;-52
2023/12/12 08:51:21;;;;;;;;;;;;;;;;;;5082287;28;19932;-52
2023/12/12 08:53:47;;;;;;;;;;;;;;;;;;5086035;28;19935;-52
2023/12/12 08:56:14;;;;;;;;;;;;;;;;;;5080211;28;20357;-52
2023/12/12 08:58:40;;;;;;;;;;;;;;;;;;5084816;28;19932;-50
2023/12/12 09:01:06;;;;;;;;;;;;;;;;;;5095317;28;19924;-52
2023/12/12 09:03:33;;;;;;;;;;;;;;;;;;5093310;28;20451;-51
2023/12/12 09:05:59;;;;;;;;;;;;;;;;;;5083269;28;19935;-52
2023/12/12 09:08:26;;;;;;;;;;;;;;;;;;5085725;28;19932;-52
2023/12/12 09:10:52;;;;;;;;;;;;;;;;;;5088146;28;20395;-52
2023/12/12 09:13:19;;;;;;;;;;;;;;;;;;5090099;28;19981;-52
2023/12/12 09:15:45;;;;;;;;;;;;;;;;;;5094548;28;19935;-52
2023/12/12 09:18:11;;;;;;;;;;;;;;;;;;5101719;28;19932;-52
2023/12/12 09:20:44;;;;;;;;;;;;;;;;;;5093152;28;19939;-52
2023/12/12 09:23:10;;;;;;;;;;;;;;;;;;5097376;28;20596;-51
2023/12/12 09:25:37;;;;;;;;;;;;;;;;;;5099471;28;19935;-52
2023/12/12 09:28:03;;;;;;;;;;;;;;;;;;5096233;28;19943;-52
2023/12/12 09:30:29;;;;;;;;;;;;;;;;;;5101581;28;19927;-52
2023/12/12 09:32:56;;;;;;;;;;;;;;;;;;5101086;28;20367;-52
2023/12/12 09:35:22;;;;;;;;;;;;;;;;;;5095869;27;19976;-53
2023/12/12 09:37:48;;;;;;;;;;;;;;;;;;5095666;28;19984;-53
2023/12/12 09:40:14;;;;;;;;;;;;;;;;;;5093552;28;20020;-53
2023/12/12 09:42:41;;;;;;;;;;;;;;;;;;5091270;28;19931;-52
2023/12/12 09:45:07;;;;;;;;;;;;;;;;;;5094441;27;20023;-53
2023/12/12 09:47:33;;;;;;;;;;;;;;;;;;5088138;28;20615;-51
2023/12/12 09:50:00;;;;;;;;;;;;;;;;;;5083190;28;20110;-53
2023/12/12 09:52:26;;;;;;;;;;;;;;;;;;5084360;27;20299;-53
2023/12/12 09:54:53;;;;;;;;;;;;;;;;;;5082107;28;19954;-53
2023/12/12 09:57:20;;;;;;;;;;;;;;;;;;5085292;27;19932;-54
2023/12/12 09:59:46;;;;;;;;;;;;;;;;;;5083584;27;20022;-53
2023/12/12 10:02:12;;;;;;;;;;;;;;;;;;5081880;28;20042;-54
2023/12/12 10:04:44;;;;;;;;;;;;;;;;;;5083045;27;19931;-53
2023/12/12 10:07:10;;;;;;;;;;;;;;;;;;5082728;27;19932;-53
2023/12/12 10:09:36;;;;;;;;;;;;;;;;;;5084583;28;19927;-52
2023/12/12 10:12:02;;;;;;;;;;;;;;;;;;5088975;27;19989;-52
2023/12/12 10:14:29;;;;;;;;;;;;;;;;;;5084334;28;20014;-51
2023/12/12 10:16:55;;;;;;;;;;;;;;;;;;5082706;27;19975;-52
2023/12/12 10:19:23;;;;;;;;;;;;;;;;;;5079613;27;20026;-53
2023/12/12 10:21:49;;;;;;;;;;;;;;;;;;5080479;27;19943;-53
2023/12/12 10:24:15;;;;;;;;;;;;;;;;;;5088330;27;20019;-53
2023/12/12 10:26:42;;;;;;;;;;;;;;;;;;5081155;28;20377;-52
2023/12/12 10:29:08;;;;;;;;;;;;;;;;;;5087399;27;20726;-53
2023/12/12 10:31:34;;;;;;;;;;;;;;;;;;5084704;28;19951;-47
2023/12/12 10:34:00;;;;;;;;;;;;;;;;;;5089495;28;19928;-51
2023/12/12 10:36:27;;;;;;;;;;;;;;;;;;5090582;28;19956;-50
2023/12/12 10:38:53;;;;;;;;;;;;;;;;;;5093735;28;19971;-52
2023/12/12 10:41:20;;;;;;;;;;;;;;;;;;5094832;28;19931;-57
2023/12/12 10:43:49;;;;;;;;;;;;;;;;;;5094247;28;19928;-52
2023/12/12 10:46:15;;;;;;;;;;;;;;;;;;5092316;28;19923;-53
2023/12/12 10:48:42;;;;;;;;;;;;;;;;;;5098418;28;19928;-52
2023/12/12 10:51:09;;;;;;;;;;;;;;;;;;5096600;28;20364;-49
2023/12/12 10:53:36;;;;;;;;;;;;;;;;;;5100342;27;20811;-51
2023/12/12 10:56:02;;;;;;;;;;;;;;;;;;5095868;28;19934;-52
2023/12/12 10:58:28;;;;;;;;;;;;;;;;;;5097344;28;19932;-50
2023/12/12 11:00:56;;;;;;;;;;;;;;;;;;5099073;27;19932;-50
2023/12/12 11:03:23;;;;;;;;;;;;;;;;;;5097433;28;20592;-48
2023/12/12 11:05:49;;;;;;;;;;;;;;;;;;5100183;28;19935;-50
2023/12/12 11:08:15;;;;;;;;;;;;;;;;;;5096492;28;19985;-49
2023/12/12 11:10:41;;;;;;;;;;;;;;;;;;5096513;27;20102;-51
2023/12/12 11:13:07;;;;;;;;;;;;;;;;;;5093300;28;19928;-51
2023/12/12 11:15:33;;;;;;;;;;;;;;;;;;5095518;28;20350;-51
2023/12/12 11:18:00;;;;;;;;;;;;;;;;;;5095102;28;19928;-50
2023/12/12 11:20:26;;;;;;;;;;;;;;;;;;5099414;28;19935;-51
2023/12/12 11:22:52;;;;;;;;;;;;;;;;;;5092294;28;20390;-50
2023/12/12 11:25:20;;;;;;;;;;;;;;;;;;5096618;27;19923;-51
2023/12/12 11:27:47;;;;;;;;;;;;;;;;;;5091161;28;20318;-50
2023/12/12 11:30:14;;;;;;;;;;;;;;;;;;5092768;28;20414;-51
2023/12/12 11:32:40;;;;;;;;;;;;;;;;;;5096414;28;19924;-50
2023/12/12 11:35:06;;;;;;;;;;;;;;;;;;5092411;28;21125;-49
2023/12/12 11:37:33;;;;;;;;;;;;;;;;;;5093435;28;19935;-52
2023/12/12 11:40:00;;;;;;;;;;;;;;;;;;5092518;28;19943;-53
2023/12/12 11:42:26;;;;;;;;;;;;;;;;;;5092755;27;19931;-52
2023/12/12 11:44:52;;;;;;;;;;;;;;;;;;5091878;28;19928;-50
2023/12/12 11:47:18;;;;;;;;;;;;;;;;;;5096966;28;19967;-51
2023/12/12 11:49:45;;;;;;;;;;;;;;;;;;5091335;28;20219;-51
2023/12/12 11:52:11;;;;;;;;;;;;;;;;;;5091374;28;20426;-52
2023/12/12 11:54:38;;;;;;;;;;;;;;;;;;5093954;28;19940;-49
2023/12/12 11:57:04;;;;;;;;;;;;;;;;;;5098763;28;19932;-50
2023/12/12 11:59:33;;;;;;;;;;;;;;;;;;5097781;27;19931;-50
2023/12/12 12:02:00;;;;;;;;;;;;;;;;;;5094866;28;19932;-52
2023/12/12 12:04:26;;;;;;;;;;;;;;;;;;5097837;28;19928;-49
2023/12/12 12:06:53;;;;;;;;;;;;;;;;;;5091954;28;19934;-50
2023/12/12 12:09:19;;;;;;;;;;;;;;;;;;5096912;28;19988;-51
2023/12/12 12:11:45;;;;;;;;;;;;;;;;;;5033308;28;19979;-51
2023/12/12 12:14:12;;;;;;;;;;;;;;;;;;5035383;28;20329;-48
2023/12/12 12:16:38;;;;;;;;;;;;;;;;;;5032019;28;19976;-48
2023/12/12 12:19:04;;;;;;;;;;;;;;;;;;5037521;28;20617;-47
2023/12/12 12:21:30;;;;;;;;;;;;;;;;;;5033312;28;19925;-48
2023/12/12 12:23:56;;;;;;;;;;;;;;;;;;5034285;28;19947;-51
2023/12/12 12:26:23;;;;;;;;;;;;;;;;;;5034076;28;19978;-50
2023/12/12 12:28:49;;;;;;;;;;;;;;;;;;5037198;28;21113;-48
2023/12/12 12:31:15;;;;;;;;;;;;;;;;;;5094326;28;19988;-51
2023/12/12 12:33:41;;;;;;;;;;;;;;;;;;5096841;28;19932;-48
2023/12/12 12:36:07;;;;;;;;;;;;;;;;;;5093562;28;19924;-50
2023/12/12 12:38:34;;;;;;;;;;;;;;;;;;5092696;28;19931;-50
2023/12/12 12:41:00;;;;;;;;;;;;;;;;;;5094951;28;19923;-50
2023/12/12 12:43:27;;;;;;;;;;;;;;;;;;5098588;28;20375;-49
2023/12/12 12:45:54;;;;;;;;;;;;;;;;;;5095383;28;19953;-51
2023/12/12 12:48:20;;;;;;;;;;;;;;;;;;5096471;28;19943;-52
2023/12/12 12:50:47;;;;;;;;;;;;;;;;;;5096269;28;20309;-52
2023/12/12 12:53:14;;;;;;;;;;;;;;;;;;5096779;28;19950;-51
2023/12/12 12:55:40;;;;;;;;;;;;;;;;;;5091841;28;20426;-50
2023/12/12 12:58:07;;;;;;;;;;;;;;;;;;5093190;28;19955;-51
2023/12/12 13:00:33;;;;;;;;;;;;;;;;;;5096800;28;19924;-50
2023/12/12 13:02:59;;;;;;;;;;;;;;;;;;5098764;27;20033;-51
2023/12/12 13:05:27;;;;;;;;;;;;;;;;;;5104978;28;20020;-51
2023/12/12 13:07:53;;;;;;;;;;;;;;;;;;5104507;28;19967;-52
2023/12/12 13:10:20;;;;;;;;;;;;;;;;;;5103792;28;19924;-50
2023/12/12 13:12:50;;;;;;;;;;;;;;;;;;5104257;28;20375;-52
2023/12/12 13:15:18;;;;;;;;;;;;;;;;;;5107756;28;19947;-52
2023/12/12 13:17:44;;;;;;;;;;;;;;;;;;5108071;28;20341;-51
2023/12/12 13:20:10;;;;;;;;;;;;;;;;;;5107147;28;20441;-51
2023/12/12 13:22:37;;;;;;;;;;;;;;;;;;5102885;28;19928;-51
2023/12/12 13:25:03;;;;;;;;;;;;;;;;;;5109682;28;19938;-51
2023/12/12 13:27:29;;;;;;;;;;;;;;;;;;5098026;28;19925;-51
2023/12/12 13:29:55;;;;;;;;;;;;;;;;;;5106556;28;20265;-52
2023/12/12 13:32:21;;;;;;;;;;;;;;;;;;5107736;28;19973;-50
2023/12/12 13:34:49;;;;;;;;;;;;;;;;;;5104982;27;20038;-51
2023/12/12 13:37:16;;;;;;;;;;;;;;;;;;5106202;28;19928;-49
2023/12/12 13:39:42;;;;;;;;;;;;;;;;;;5105864;28;20346;-51
2023/12/12 13:42:08;;;;;;;;;;;;;;;;;;5107232;28;19966;-51
2023/12/12 13:44:35;;;;;;;;;;;;;;;;;;5100309;28;19963;-47
2023/12/12 13:47:01;;;;;;;;;;;;;;;;;;5108298;28;19927;-51
2023/12/12 13:49:27;;;;;;;;;;;;;;;;;;5104058;28;19967;-50
2023/12/12 13:51:53;;;;;;;;;;;;;;;;;;5103703;28;19931;-48
2023/12/12 13:54:20;;;;;;;;;;;;;;;;;;5108291;27;19980;-52
2023/12/12 13:56:46;;;;;;;;;;;;;;;;;;5109524;28;19996;-48
2023/12/12 13:59:13;;;;;;;;;;;;;;;;;;5104920;28;19932;-52
2023/12/12 14:01:39;;;;;;;;;;;;;;;;;;5107502;28;19927;-51
2023/12/12 14:04:06;;;;;;;;;;;;;;;;;;5109933;28;19934;-52
2023/12/12 14:06:32;;;;;;;;;;;;;;;;;;5109470;27;20207;-51
2023/12/12 14:08:58;;;;;;;;;;;;;;;;;;5108139;28;19975;-50
2023/12/12 14:11:26;;;;;;;;;;;;;;;;;;5108028;28;19950;-51
2023/12/12 14:13:52;;;;;;;;;;;;;;;;;;5106410;28;19939;-50
2023/12/12 14:16:19;;;;;;;;;;;;;;;;;;5108810;28;20004;-51
2023/12/12 14:18:52;;;;;;;;;;;;;;;;;;5107944;28;20431;-50
2023/12/12 14:21:19;;;;;;;;;;;;;;;;;;5106397;27;19935;-51
2023/12/12 14:23:45;;;;;;;;;;;;;;;;;;5107887;28;20325;-51
2023/12/12 14:26:11;;;;;;;;;;;;;;;;;;5109145;28;19924;-51
2023/12/12 14:28:37;;;;;;;;;;;;;;;;;;5108601;28;19984;-51
2023/12/12 14:31:04;;;;;;;;;;;;;;;;;;5108391;28;19963;-50
2023/12/12 14:33:30;;;;;;;;;;;;;;;;;;5109150;28;20016;-52
2023/12/12 14:35:56;;;;;;;;;;;;;;;;;;5107731;28;19981;-50
2023/12/12 14:38:22;;;;;;;;;;;;;;;;;;5108329;28;19959;-50
2023/12/12 14:40:48;;;;;;;;;;;;;;;;;;5108259;28;19927;-51
2023/12/12 14:43:15;;;;;;;;;;;;;;;;;;5108959;28;20332;-49
2023/12/12 14:45:42;;;;;;;;;;;;;;;;;;5107948;28;19924;-51
2023/12/12 14:48:12;;;;;;;;;;;;;;;;;;5108754;28;20361;-50
2023/12/12 14:50:39;;;;;;;;;;;;;;;;;;5108699;28;19930;-50
2023/12/12 14:53:05;;;;;;;;;;;;;;;;;;5107683;28;19968;-50
2023/12/12 14:55:32;;;;;;;;;;;;;;;;;;5108019;28;19959;-51
2023/12/12 14:57:58;;;;;;;;;;;;;;;;;;5108383;28;19923;-51
2023/12/12 15:00:25;;;;;;;;;;;;;;;;;;5107840;28;19931;-51
2023/12/12 15:02:52;;;;;;;;;;;;;;;;;;5108353;28;19938;-51
2023/12/12 15:05:18;;;;;;;;;;;;;;;;;;5107902;28;19973;-49
2023/12/12 15:07:46;;;;;;;;;;;;;;;;;;5108431;28;19924;-52
2023/12/12 15:10:12;;;;;;;;;;;;;;;;;;5107694;28;19927;-50
2023/12/12 15:12:39;;;;;;;;;;;;;;;;;;5108460;28;20376;-51
2023/12/12 15:15:06;;;;;;;;;;;;;;;;;;5108131;28;19971;-47
2023/12/12 15:17:32;;;;;;;;;;;;;;;;;;5107533;28;19927;-51
2023/12/12 15:19:58;;;;;;;;;;;;;;;;;;5108073;28;19932;-51
2023/12/12 15:22:24;;;;;;;;;;;;;;;;;;5107798;28;19923;-51
2023/12/12 15:24:50;;;;;;;;;;;;;;;;;;5108042;28;19946;-50
2023/12/12 15:27:17;;;;;;;;;;;;;;;;;;5107727;28;19935;-50
2023/12/12 15:29:43;;;;;;;;;;;;;;;;;;5107538;28;20420;-50
2023/12/12 15:32:10;;;;;;;;;;;;;;;;;;5107888;28;19928;-51
2023/12/12 15:34:36;;;;;;;;;;;;;;;;;;5108499;28;20435;-50
2023/12/12 15:37:02;;;;;;;;;;;;;;;;;;5107611;28;19959;-50
2023/12/12 15:39:29;;;;;;;;;;;;;;;;;;5107893;28;20258;-51
2023/12/12 15:41:56;;;;;;;;;;;;;;;;;;5107852;28;19924;-50
2023/12/12 15:44:23;;;;;;;;;;;;;;;;;;5107574;28;20009;-49
2023/12/12 15:46:49;;;;;;;;;;;;;;;;;;5107395;28;20372;-50
2023/12/12 15:49:15;;;;;;;;;;;;;;;;;;5106799;28;20333;-50
2023/12/12 15:51:42;;;;;;;;;;;;;;;;;;5106735;28;20434;-51
2023/12/12 15:54:08;;;;;;;;;;;;;;;;;;5106801;28;19963;-51
2023/12/12 15:56:34;;;;;;;;;;;;;;;;;;5106909;28;20444;-51
2023/12/12 15:59:00;;;;;;;;;;;;;;;;;;5107423;28;19928;-50
2023/12/12 16:01:30;;;;;;;;;;;;;;;;;;5106573;28;20320;-50
2023/12/12 16:04:00;;;;;;;;;;;;;;;;;;5107780;28;20371;-50
2023/12/12 16:06:26;;;;;;;;;;;;;;;;;;5107541;28;19931;-50
2023/12/12 16:08:52;;;;;;;;;;;;;;;;;;5107046;28;19930;-50
2023/12/12 16:11:19;;;;;;;;;;;;;;;;;;5106737;28;20016;-51
2023/12/12 16:13:45;;;;;;;;;;;;;;;;;;5106837;28;20334;-49
2023/12/12 16:16:13;;;;;;;;;;;;;;;;;;5106588;28;20109;-50
2023/12/12 16:18:39;;;;;;;;;;;;;;;;;;5107060;28;19923;-51
2023/12/12 16:21:06;;;;;;;;;;;;;;;;;;5106117;28;19940;-49
2023/12/12 16:23:32;;;;;;;;;;;;;;;;;;5107293;28;19963;-51
2023/12/12 16:25:58;;;;;;;;;;;;;;;;;;5107232;28;19927;-50
2023/12/12 16:28:24;;;;;;;;;;;;;;;;;;5107195;28;19932;-51
2023/12/12 16:30:52;;;;;;;;;;;;;;;;;;5106489;28;19924;-51
2023/12/12 16:33:18;;;;;;;;;;;;;;;;;;5107253;28;19934;-48
2023/12/12 16:35:46;;;;;;;;;;;;;;;;;;5106415;28;20294;-50
2023/12/12 16:38:12;;;;;;;;;;;;;;;;;;5106034;28;19932;-49
2023/12/12 16:40:38;;;;;;;;;;;;;;;;;;5105840;28;20413;-49